createdAt,value
2022-10-20T00:05:00.596Z,9.25
2022-10-20T00:10:04.353Z,9.24
2022-10-20T00:15:08.436Z,9.26
2022-10-20T00:20:12.709Z,9.28
2022-10-20T00:25:15.805Z,9.37
2022-10-20T00:30:21.419Z,9.55
2022-10-20T00:35:27.015Z,9.72
2022-10-20T00:40:30.507Z,9.81
2022-10-20T00:45:34.028Z,9.86
2022-10-20T00:50:43.657Z,9.89
2022-10-20T00:55:49.606Z,9.95
2022-10-20T01:00:57.700Z,9.87
2022-10-20T01:06:00.730Z,9.83
2022-10-20T01:11:12.480Z,9.81
2022-10-20T01:16:36.208Z,9.80
2022-10-20T01:22:08.876Z,9.95
2022-10-20T01:27:33.356Z,10.02
2022-10-20T01:33:05.315Z,9.89
2022-10-20T01:38:26.853Z,9.78
2022-10-20T01:43:34.663Z,9.70
2022-10-20T01:48:40.733Z,9.58
2022-10-20T01:53:43.640Z,9.50
2022-10-20T01:58:58.893Z,9.50
2022-10-20T02:04:03.468Z,9.55
2022-10-20T02:09:13.880Z,9.50
2022-10-20T02:14:19.188Z,9.47
2022-10-20T02:19:25.619Z,9.34
2022-10-20T02:24:34.406Z,9.25
2022-10-20T02:29:43.622Z,9.26
2022-10-20T02:34:46.650Z,9.21
2022-10-20T02:39:50.338Z,9.14
2022-10-20T02:44:53.820Z,9.13
2022-10-20T02:49:56.823Z,9.09
2022-10-20T02:55:00.608Z,9.07
2022-10-20T03:00:05.642Z,8.97
2022-10-20T03:05:09.216Z,8.89
2022-10-20T03:10:13.181Z,8.82
2022-10-20T03:15:16.980Z,8.74
2022-10-20T03:20:20.710Z,8.69
2022-10-20T03:25:26.273Z,8.56
2022-10-20T03:30:29.854Z,8.42
2022-10-20T03:35:33.454Z,8.31
2022-10-20T03:40:36.767Z,8.25
2022-10-20T03:45:40.519Z,8.22
2022-10-20T03:50:43.979Z,8.24
2022-10-20T03:55:47.614Z,8.12
2022-10-20T04:00:51.236Z,8.06
2022-10-20T04:05:54.198Z,8.03
2022-10-20T04:10:58.845Z,8.05
2022-10-20T04:16:01.864Z,7.97
2022-10-20T04:21:05.751Z,8.05
2022-10-20T04:26:11.287Z,8.09
2022-10-20T04:31:14.932Z,8.08
2022-10-20T04:36:18.039Z,8.24
2022-10-20T04:41:21.510Z,8.14
2022-10-20T04:46:26.083Z,8.04
2022-10-20T04:51:29.528Z,7.98
2022-10-20T04:56:32.891Z,7.94
2022-10-20T05:01:35.898Z,7.85
2022-10-20T05:06:39.688Z,7.84
2022-10-20T05:11:44.330Z,7.90
2022-10-20T05:16:47.654Z,7.93
2022-10-20T05:21:50.961Z,7.96
2022-10-20T05:26:54.582Z,8.04
2022-10-20T05:31:57.800Z,8.21
2022-10-20T05:37:00.746Z,8.31
2022-10-20T05:42:03.759Z,8.42
2022-10-20T05:47:07.156Z,8.55
2022-10-20T05:52:10.117Z,8.83
2022-10-20T05:57:13.776Z,9.15
2022-10-20T06:02:17.331Z,9.49
2022-10-20T06:07:22.985Z,9.90
2022-10-20T06:12:26.859Z,11.36
2022-10-20T06:17:31.099Z,17.27
2022-10-20T06:22:35.472Z,20.92
2022-10-20T06:27:39.284Z,23.05
2022-10-20T06:32:43.598Z,24.34
2022-10-20T06:37:46.774Z,25.79
2022-10-20T06:42:50.360Z,26.75
2022-10-20T06:47:53.785Z,27.76
2022-10-20T06:52:56.821Z,28.39
2022-10-20T06:58:00.320Z,28.91
2022-10-20T07:03:03.941Z,29.67
2022-10-20T07:08:07.344Z,30.31
2022-10-20T07:13:12.782Z,30.42
2022-10-20T07:18:15.830Z,30.67
2022-10-20T07:23:19.656Z,29.86
2022-10-20T07:28:22.658Z,29.19
2022-10-20T07:33:26.380Z,28.87
2022-10-20T07:38:29.956Z,28.80
2022-10-20T07:43:33.025Z,29.52
2022-10-20T07:48:36.940Z,28.22
2022-10-20T07:53:40.006Z,28.83
2022-10-20T07:58:43.936Z,29.62
2022-10-20T08:03:47.521Z,29.61
2022-10-20T08:08:50.750Z,29.14
2022-10-20T08:13:53.722Z,28.89
2022-10-20T08:24:17.407Z,27.24
2022-10-20T08:29:20.514Z,27.44
2022-10-20T08:34:24.048Z,28.08
2022-10-20T08:39:27.079Z,27.37
2022-10-20T08:44:33.189Z,29.03
2022-10-20T08:49:36.523Z,29.23
2022-10-20T08:54:39.511Z,28.80
2022-10-20T08:59:43.281Z,27.88
2022-10-20T09:04:54.788Z,28.19
2022-10-20T09:10:12.798Z,27.95
2022-10-20T09:15:18.512Z,28.30
2022-10-20T09:20:26.873Z,27.64
2022-10-20T09:25:30.542Z,28.25
2022-10-20T09:30:35.656Z,27.81
2022-10-20T09:35:40.027Z,26.57
2022-10-20T09:41:20.393Z,28.19
2022-10-20T09:46:26.959Z,27.78
2022-10-20T09:51:31.548Z,27.83
2022-10-20T09:56:37.571Z,27.13
2022-10-20T10:02:16.213Z,26.72
2022-10-20T10:07:28.275Z,26.52
2022-10-20T10:12:33.789Z,25.56
2022-10-20T10:17:40.062Z,25.15
2022-10-20T10:22:44.668Z,23.31
2022-10-20T10:28:00.678Z,22.66
2022-10-20T10:33:24.460Z,24.97
2022-10-20T10:38:29.187Z,23.68
2022-10-20T10:43:44.969Z,25.02
2022-10-20T10:49:15.766Z,24.11
2022-10-20T10:54:51.123Z,24.70
2022-10-20T10:59:55.666Z,24.81
2022-10-20T11:05:05.452Z,24.76
2022-10-20T11:10:27.638Z,24.59
2022-10-20T11:15:57.244Z,24.52
2022-10-20T11:21:19.293Z,25.14
2022-10-20T11:26:33.811Z,25.00
2022-10-20T11:31:46.017Z,25.11
2022-10-20T11:36:58.118Z,25.75
2022-10-20T11:42:14.124Z,24.55
2022-10-20T11:47:39.171Z,25.35
2022-10-20T11:53:07.995Z,26.30
2022-10-20T11:58:22.865Z,26.27
2022-10-20T12:04:17.822Z,25.00
2022-10-20T12:09:45.143Z,24.74
2022-10-20T12:15:00.923Z,25.55
2022-10-20T12:20:23.043Z,26.01
2022-10-20T12:25:26.112Z,25.59
2022-10-20T12:30:37.901Z,25.36
2022-10-20T12:36:01.169Z,24.95
2022-10-20T12:41:07.327Z,25.41
2022-10-20T12:46:17.329Z,25.22
2022-10-20T12:51:30.862Z,26.30
2022-10-20T12:56:40.125Z,25.87
2022-10-20T13:02:22.299Z,25.02
2022-10-20T13:08:33.808Z,25.47
2022-10-20T13:13:46.367Z,24.98
2022-10-20T13:18:52.979Z,26.11
2022-10-20T13:24:05.408Z,25.67
2022-10-20T13:29:23.160Z,25.92
2022-10-20T13:34:54.987Z,26.81
2022-10-20T13:40:20.015Z,26.02
2022-10-20T13:45:27.367Z,26.60
2022-10-20T13:50:37.456Z,26.47
2022-10-20T13:55:57.308Z,26.98
2022-10-20T14:01:02.069Z,26.85
2022-10-20T14:06:06.157Z,28.05
2022-10-20T14:11:11.476Z,27.77
2022-10-20T14:16:21.665Z,26.53
2022-10-20T14:21:28.855Z,27.13
2022-10-20T14:26:33.405Z,25.76
2022-10-20T14:31:36.930Z,25.82
2022-10-20T14:36:45.211Z,24.75
2022-10-20T14:41:49.419Z,23.55
2022-10-20T14:46:59.276Z,22.77
2022-10-20T14:52:05.521Z,22.23
2022-10-20T14:57:12.759Z,21.81
2022-10-20T15:02:20.891Z,21.56
2022-10-20T15:07:32.570Z,21.21
2022-10-20T15:12:49.420Z,21.60
2022-10-20T15:18:04.942Z,21.53
2022-10-20T15:23:13.905Z,21.67
2022-10-20T15:28:30.901Z,21.60
2022-10-20T15:33:34.473Z,21.55
2022-10-20T15:38:37.986Z,20.84
2022-10-20T15:43:41.247Z,20.33
2022-10-20T15:48:45.120Z,19.95
2022-10-20T15:53:50.157Z,19.74
2022-10-20T15:58:53.866Z,19.47
2022-10-20T16:03:58.012Z,19.19
2022-10-20T16:09:01.317Z,19.01
2022-10-20T16:14:06.414Z,18.78
2022-10-20T16:19:10.449Z,18.66
2022-10-20T16:24:14.123Z,18.46
2022-10-20T16:29:18.500Z,18.28
2022-10-20T16:34:22.725Z,18.08
2022-10-20T16:39:26.807Z,17.87
2022-10-20T16:44:31.364Z,17.66
2022-10-20T16:49:35.790Z,17.33
2022-10-20T16:59:51.008Z,16.88
2022-10-20T17:04:54.741Z,16.71
2022-10-20T17:09:58.619Z,16.58
2022-10-20T17:15:02.095Z,16.28
2022-10-20T17:20:06.236Z,16.06
2022-10-20T17:25:10.170Z,15.93
2022-10-20T17:30:14.716Z,15.91
2022-10-20T17:35:18.271Z,15.96
2022-10-20T17:40:22.477Z,15.84
2022-10-20T17:45:26.348Z,15.84
2022-10-20T17:50:29.945Z,15.54
2022-10-20T17:55:34.170Z,15.18
2022-10-20T18:00:55.552Z,15.08
2022-10-20T18:06:05.840Z,14.93
2022-10-20T18:11:11.418Z,14.74
2022-10-20T18:16:17.528Z,14.62
2022-10-20T18:21:21.275Z,14.52
2022-10-20T18:26:25.840Z,14.41
2022-10-20T18:31:31.552Z,14.35
2022-10-20T18:36:40.405Z,14.25
2022-10-20T18:41:50.855Z,14.20
2022-10-20T18:46:57.859Z,14.16
2022-10-20T18:52:03.209Z,14.14
2022-10-20T18:57:06.418Z,14.09
2022-10-20T19:02:12.563Z,14.02
2022-10-20T19:07:16.168Z,14.02
2022-10-20T19:12:19.468Z,14.07
2022-10-20T19:17:23.771Z,14.12
2022-10-20T19:22:29.354Z,14.17
2022-10-20T19:27:33.359Z,14.24
2022-10-20T19:32:40.405Z,14.17
2022-10-20T19:37:46.789Z,14.23
2022-10-20T19:42:50.505Z,14.18
2022-10-20T19:47:54.976Z,14.18
2022-10-20T19:52:59.253Z,14.12
2022-10-20T19:58:04.752Z,13.99
2022-10-20T20:03:09.107Z,13.91
2022-10-20T20:08:15.184Z,13.93
2022-10-20T20:13:18.484Z,13.90
2022-10-20T20:18:21.522Z,13.81
2022-10-20T20:23:34.667Z,13.67
2022-10-20T20:28:44.530Z,13.48
2022-10-20T20:33:48.467Z,13.32
2022-10-20T20:38:53.794Z,13.06
2022-10-20T20:44:04.116Z,12.93
2022-10-20T20:49:10.188Z,12.70
2022-10-20T20:54:13.725Z,12.50
2022-10-20T20:59:17.171Z,12.35
2022-10-20T21:04:21.546Z,12.16
2022-10-20T21:09:25.036Z,11.99
2022-10-20T21:14:28.615Z,11.84
2022-10-20T21:19:31.542Z,11.70
2022-10-20T21:24:34.616Z,11.55
2022-10-20T21:29:37.859Z,11.41
2022-10-20T21:34:41.251Z,11.28
2022-10-20T21:39:44.195Z,11.17
2022-10-20T21:44:47.645Z,11.05
2022-10-20T21:49:51.767Z,11.08
2022-10-20T21:54:55.335Z,10.98
2022-10-20T21:59:59.132Z,10.86
2022-10-20T22:05:03.531Z,10.80
2022-10-20T22:10:09.223Z,10.74
2022-10-20T22:15:13.284Z,10.71
2022-10-20T22:20:16.986Z,10.62
2022-10-20T22:25:20.954Z,10.52
2022-10-20T22:30:24.943Z,10.44
2022-10-20T22:35:28.894Z,10.54
2022-10-20T22:40:31.943Z,10.52
2022-10-20T22:45:37.211Z,10.52
2022-10-20T22:50:42.821Z,10.51
2022-10-20T22:55:46.251Z,10.42
2022-10-20T23:00:49.967Z,10.38
2022-10-20T23:05:54.265Z,10.34
2022-10-20T23:10:58.901Z,10.28
2022-10-20T23:16:03.026Z,10.21
2022-10-20T23:21:06.845Z,10.22
2022-10-20T23:26:11.898Z,10.22
2022-10-20T23:31:17.701Z,10.10
2022-10-20T23:36:22.299Z,10.10
2022-10-20T23:41:25.260Z,10.07
2022-10-20T23:46:32.263Z,10.10
2022-10-20T23:51:35.586Z,10.09
2022-10-20T23:56:38.955Z,10.01
